Volcan De Teneguia — ECLA — position and weather

sailwx.info

Track history (hours):
 
Tides and Currents Weather Stations Pressure Air Temp Water Temp Dewpoint Dewpoint Depression Visibility Wind Speed Wind Dir Waves Ship Positions

Volcan De Teneguia

Last reported at 2016-May-23 02:25 UTC. Time now 2016-May-25 18:56 UTC.
Position N 36°44' W 006°34'.

Length 145 m; draft 5.2 m.

Type: Ship (hazmat cat A). MMSI: 225317000.

Date/timePositionNaut miles runAvg speedWind from/ knotsBaromVisibWave heightAir tempDewpointWater temp
2016-May-23 02:25N 36°44' W 006°34'46714.2
2016-May-21 17:30N 31°09' W 013°06'7714.1
2016-May-21 12:03N 30°14' W 014°09'714.0
2016-May-21 11:32N 30°09' W 014°14'1414.0
2016-May-21 10:33N 29°59' W 014°25'1414.0
2016-May-21 09:32N 29°49' W 014°37'1613.6
2016-May-21 08:20N 29°37' W 014°50'5213.7
2016-May-21 04:33N 29°00' W 015°32'1313.3
2016-May-21 03:32N 28°50' W 015°42'1313.3
2016-May-21 02:33N 28°41' W 015°53'1413.6
2016-May-21 01:33N 28°32' W 016°04'9 1.2
2016-May-20 18:11N 28°29' W 016°14'5 8.1
2016-May-20 17:33N 28°26' W 016°09'1514.7
2016-May-20 16:33N 28°21' W 015°53'1514.6
2016-May-20 15:33N 28°17' W 015°38'1414.2
2016-May-20 14:33N 28°11' W 015°23'3 2.6
2016-May-20 13:29N 28°09' W 015°25'0 0.0
2016-May-20 12:29N 28°09' W 015°25'0 0.0
2016-May-20 11:29N 28°09' W 015°25'0 0.0
2016-May-20 10:32N 28°09' W 015°25'0 0.0
2016-May-20 08:32N 28°09' W 015°25'0 0.0
2016-May-20 07:32N 28°09' W 015°25'0 0.0
2016-May-20 06:32N 28°09' W 015°25'3 3.0
2016-May-20 05:33N 28°07' W 015°23'1212.5
2016-May-20 04:33N 28°16' W 015°13'1313.1
2016-May-20 03:33N 28°26' W 015°04'1313.3
2016-May-20 02:33N 28°36' W 014°54'58614.5
2016-May-18 10:12N 35°60' W 007°21'1514.9
2016-May-18 09:12N 36°11' W 007°09'6513.1
2016-May-18 04:13N 36°56' W 006°11'  
2016-May-14 04:33N 28°59' W 015°33'1414.1
2016-May-14 03:33N 28°49' W 015°44'1414.1
2016-May-14 02:33N 28°39' W 015°56'1413.7
2016-May-14 01:33N 28°30' W 016°08'5 0.7
2016-May-13 17:22N 28°29' W 016°14'810.0
2016-May-13 16:33N 28°26' W 016°06'1515.0
2016-May-13 15:33N 28°21' W 015°49'1515.0
2016-May-13 14:33N 28°16' W 015°33'1211.8
2016-May-13 13:33N 28°07' W 015°24'2 1.6
2016-May-13 12:29N 28°09' W 015°25'0 0.0
2016-May-13 11:26N 28°09' W 015°25'0 0.0
2016-May-13 10:32N 28°09' W 015°25'  
Track history (hours):
 
Tides and Currents Weather Stations Pressure Air Temp Water Temp Dewpoint Dewpoint Depression Visibility Wind Speed Wind Dir Waves Ship Positions

Volcan De Teneguia

Last reported at 2016-May-23 02:25 UTC. Time now 2016-May-25 18:56 UTC.
Position N 36°44' W 006°34'.

Length 145 m; draft 5.2 m.

Type: Ship (hazmat cat A). MMSI: 225317000.

Date/timePositionNaut miles runAvg speedWind from/ knotsBaromVisibWave heightAir tempDewpointWater temp
2016-May-23 02:25N 36°44' W 006°34'46714.2
2016-May-21 17:30N 31°09' W 013°06'7714.1
2016-May-21 12:03N 30°14' W 014°09'714.0
2016-May-21 11:32N 30°09' W 014°14'1414.0
2016-May-21 10:33N 29°59' W 014°25'1414.0
2016-May-21 09:32N 29°49' W 014°37'1613.6
2016-May-21 08:20N 29°37' W 014°50'5213.7
2016-May-21 04:33N 29°00' W 015°32'1313.3
2016-May-21 03:32N 28°50' W 015°42'1313.3
2016-May-21 02:33N 28°41' W 015°53'1413.6
2016-May-21 01:33N 28°32' W 016°04'9 1.2
2016-May-20 18:11N 28°29' W 016°14'5 8.1
2016-May-20 17:33N 28°26' W 016°09'1514.7
2016-May-20 16:33N 28°21' W 015°53'1514.6
2016-May-20 15:33N 28°17' W 015°38'1414.2
2016-May-20 14:33N 28°11' W 015°23'3 2.6
2016-May-20 13:29N 28°09' W 015°25'0 0.0
2016-May-20 12:29N 28°09' W 015°25'0 0.0
2016-May-20 11:29N 28°09' W 015°25'0 0.0
2016-May-20 10:32N 28°09' W 015°25'0 0.0
2016-May-20 08:32N 28°09' W 015°25'0 0.0
2016-May-20 07:32N 28°09' W 015°25'0 0.0
2016-May-20 06:32N 28°09' W 015°25'3 3.0
2016-May-20 05:33N 28°07' W 015°23'1212.5
2016-May-20 04:33N 28°16' W 015°13'1313.1
2016-May-20 03:33N 28°26' W 015°04'1313.3
2016-May-20 02:33N 28°36' W 014°54'58614.5
2016-May-18 10:12N 35°60' W 007°21'1514.9
2016-May-18 09:12N 36°11' W 007°09'6513.1
2016-May-18 04:13N 36°56' W 006°11'  
2016-May-14 04:33N 28°59' W 015°33'1414.1
2016-May-14 03:33N 28°49' W 015°44'1414.1
2016-May-14 02:33N 28°39' W 015°56'1413.7
2016-May-14 01:33N 28°30' W 016°08'5 0.7
2016-May-13 17:22N 28°29' W 016°14'810.0
2016-May-13 16:33N 28°26' W 016°06'1515.0
2016-May-13 15:33N 28°21' W 015°49'1515.0
2016-May-13 14:33N 28°16' W 015°33'1211.8
2016-May-13 13:33N 28°07' W 015°24'2 1.6
2016-May-13 12:29N 28°09' W 015°25'0 0.0
2016-May-13 11:26N 28°09' W 015°25'0 0.0
2016-May-13 10:32N 28°09' W 015°25'  

Dump ship's entire track history